Time;durP1;ratioP1;P1;durP2;ratioP2;P2;SDS_P1;SDS_P2;PMS_P1;PMS_P2;Temp;Humidity;BMP_temperature;BMP_pressure;BME280_temperature;BME280_humidity;BME280_pressure;Samples;Min_cycle;Max_cycle;Signal;HPM_P1;HPM_P2
2023/04/14 00:02:05;;;;;;;;;3.00;2.00;;;;;;;;4994960;28;45584;-82
2023/04/14 00:04:31;;;;;;;;;2.00;2.00;;;;;;;;4995235;28;45578;-80
2023/04/14 00:06:57;;;;;;;;;1.00;1.00;;;;;;;;4978111;28;45532;-80
2023/04/14 00:09:23;;;;;;;;;1.50;0.00;;;;;;;;4977587;28;45375;-80
2023/04/14 00:11:49;;;;;;;;;4.00;4.00;;;;;;;;4977313;28;47115;-81
2023/04/14 00:14:14;;;;;;;;;2.75;1.75;;;;;;;;4977787;28;45396;-80
2023/04/14 00:16:41;;;;;;;;;2.00;2.00;;;;;;;;4978825;28;45391;-80
2023/04/14 00:19:06;;;;;;;;;1.00;1.00;;;;;;;;4979020;28;45391;-80
2023/04/14 00:21:32;;;;;;;;;1.00;1.00;;;;;;;;4978372;28;47182;-80
2023/04/14 00:23:57;;;;;;;;;1.00;1.00;;;;;;;;4979295;28;45366;-80
2023/04/14 00:26:23;;;;;;;;;0.75;0.75;;;;;;;;4978468;28;45336;-81
2023/04/14 00:28:48;;;;;;;;;1.00;1.00;;;;;;;;4978763;28;45511;-80
2023/04/14 00:31:13;;;;;;;;;0.00;0.00;;;;;;;;4966818;28;46052;-80
2023/04/14 00:33:39;;;;;;;;;1.00;1.00;;;;;;;;4958819;28;45358;-80
2023/04/14 00:36:04;;;;;;;;;0.25;0.25;;;;;;;;4970520;28;45394;-80
2023/04/14 00:38:30;;;;;;;;;1.00;0.00;;;;;;;;4960833;28;45310;-80
2023/04/14 00:40:55;;;;;;;;;0.00;0.00;;;;;;;;4978120;28;46168;-80
2023/04/14 00:43:20;;;;;;;;;1.00;1.00;;;;;;;;4970622;28;45734;-79
2023/04/14 00:45:46;;;;;;;;;0.00;0.00;;;;;;;;4958931;28;45452;-80
2023/04/14 00:48:12;;;;;;;;;0.00;0.00;;;;;;;;4957528;28;45496;-80
2023/04/14 00:50:38;;;;;;;;;1.00;1.00;;;;;;;;4959250;28;46104;-80
2023/04/14 00:53:03;;;;;;;;;0.00;0.00;;;;;;;;4975130;28;46061;-80
2023/04/14 00:55:28;;;;;;;;;1.50;0.00;;;;;;;;4978312;28;45415;-80
2023/04/14 00:57:54;;;;;;;;;0.00;0.00;;;;;;;;4977626;28;45411;-80
2023/04/14 01:00:19;;;;;;;;;1.00;1.00;;;;;;;;4977573;28;46156;-80
2023/04/14 01:02:44;;;;;;;;;1.50;1.50;;;;;;;;4977839;28;45508;-81
2023/04/14 01:05:09;;;;;;;;;0.00;0.00;;;;;;;;4974125;28;45340;-81
2023/04/14 01:07:35;;;;;;;;;1.00;1.00;;;;;;;;4966420;28;45397;-80
2023/04/14 01:10:01;;;;;;;;;1.00;1.00;;;;;;;;4971274;28;45386;-80
2023/04/14 01:12:29;;;;;;;;;1.00;1.00;;;;;;;;4965155;28;45398;-81
2023/04/14 01:15:03;;;;;;;;;1.00;1.00;;;;;;;;4958067;28;45327;-81
2023/04/14 01:17:28;;;;;;;;;1.00;1.00;;;;;;;;4964346;28;45315;-79
2023/04/14 01:20:16;;;;;;;;;1.25;1.00;;;;;;;;4977010;28;45623;-80
2023/04/14 01:22:46;;;;;;;;;0.00;0.00;;;;;;;;4975738;28;45346;-81
2023/04/14 01:25:12;;;;;;;;;1.25;0.00;;;;;;;;4976914;28;45435;-80
2023/04/14 01:27:56;;;;;;;;;1.75;1.75;;;;;;;;4976958;28;45474;-80
2023/04/14 01:30:36;;;;;;;;;0.25;0.25;;;;;;;;4976681;28;45372;-80
2023/04/14 01:33:05;;;;;;;;;0.00;0.00;;;;;;;;4976849;28;45476;-81
2023/04/14 01:35:54;;;;;;;;;0.00;0.00;;;;;;;;4976923;28;45450;-82
2023/04/14 01:38:25;;;;;;;;;1.00;1.00;;;;;;;;4971087;28;45495;-80
2023/04/14 01:40:51;;;;;;;;;0.25;0.25;;;;;;;;4976500;28;46336;-81
2023/04/14 01:43:19;;;;;;;;;1.00;1.00;;;;;;;;4968078;28;45450;-81
2023/04/14 01:45:49;;;;;;;;;3.50;1.00;;;;;;;;4957652;28;45386;-80
2023/04/14 01:48:14;;;;;;;;;1.25;1.00;;;;;;;;4957230;28;45432;-79
2023/04/14 01:50:40;;;;;;;;;0.50;0.50;;;;;;;;4957252;28;45672;-80
2023/04/14 01:53:06;;;;;;;;;1.50;1.50;;;;;;;;4962889;28;45404;-79
2023/04/14 01:55:33;;;;;;;;;6.00;6.00;;;;;;;;4977122;28;45502;-80
2023/04/14 01:57:59;;;;;;;;;9.50;9.50;;;;;;;;4976727;28;45461;-81
2023/04/14 02:00:25;;;;;;;;;10.50;10.50;;;;;;;;4976575;28;47091;-80
2023/04/14 02:02:52;;;;;;;;;10.25;9.50;;;;;;;;4995607;28;45517;-79
2023/04/14 02:05:18;;;;;;;;;19.00;19.00;;;;;;;;4989101;28;45407;-79
2023/04/14 02:07:44;;;;;;;;;21.75;18.50;;;;;;;;4976457;28;45488;-80
2023/04/14 02:10:10;;;;;;;;;0.00;0.00;;;;;;;;4976021;28;45482;-80
2023/04/14 02:12:40;;;;;;;;;19.00;17.00;;;;;;;;4976401;28;45334;-80
2023/04/14 02:15:05;;;;;;;;;19.75;19.75;;;;;;;;4976265;28;45348;-79
2023/04/14 02:17:32;;;;;;;;;14.25;13.00;;;;;;;;4976371;28;45495;-79
2023/04/14 02:19:58;;;;;;;;;15.00;15.00;;;;;;;;4976410;28;46402;-80
2023/04/14 02:22:23;;;;;;;;;12.50;10.00;;;;;;;;4975976;28;45393;-80
2023/04/14 02:24:48;;;;;;;;;11.50;11.50;;;;;;;;4976681;28;46052;-80
2023/04/14 02:27:19;;;;;;;;;9.25;9.00;;;;;;;;4977144;28;45439;-80
2023/04/14 02:29:47;;;;;;;;;3.00;3.00;;;;;;;;4976442;28;46816;-80
2023/04/14 02:32:16;;;;;;;;;3.50;3.50;;;;;;;;4976107;28;45536;-80
2023/04/14 02:34:46;;;;;;;;;3.75;3.75;;;;;;;;4978677;28;45397;-80
2023/04/14 02:37:15;;;;;;;;;1.00;1.00;;;;;;;;4979409;28;45459;-81
2023/04/14 02:39:42;;;;;;;;;1.75;1.75;;;;;;;;4979724;28;46687;-81
2023/04/14 02:42:12;;;;;;;;;2.00;2.00;;;;;;;;4979594;28;45449;-78
2023/04/14 02:44:41;;;;;;;;;2.00;2.00;;;;;;;;4959624;28;45382;-79
2023/04/14 02:47:10;;;;;;;;;1.25;1.25;;;;;;;;4958961;28;45334;-79
2023/04/14 02:49:36;;;;;;;;;1.00;1.00;;;;;;;;4969039;28;45992;-79
2023/04/14 02:52:04;;;;;;;;;0.00;0.00;;;;;;;;4978978;28;45537;-79
2023/04/14 02:54:30;;;;;;;;;2.00;1.00;;;;;;;;4979502;28;45814;-79
2023/04/14 02:56:56;;;;;;;;;2.00;1.25;;;;;;;;4978981;28;45417;-79
2023/04/14 02:59:21;;;;;;;;;0.75;0.75;;;;;;;;4978895;28;46345;-78
2023/04/14 03:01:47;;;;;;;;;1.00;1.00;;;;;;;;4978156;28;45474;-79
2023/04/14 03:04:12;;;;;;;;;0.00;0.00;;;;;;;;4977876;28;45459;-79
2023/04/14 03:06:39;;;;;;;;;1.00;1.00;;;;;;;;4977929;28;45407;-79
2023/04/14 03:09:05;;;;;;;;;1.00;1.00;;;;;;;;4976502;28;47432;-79
2023/04/14 03:11:31;;;;;;;;;1.75;1.50;;;;;;;;4977670;28;45385;-79
2023/04/14 03:13:58;;;;;;;;;2.50;1.00;;;;;;;;4977427;28;45513;-79
2023/04/14 03:16:24;;;;;;;;;2.00;1.00;;;;;;;;4976241;28;45518;-78
2023/04/14 03:18:49;;;;;;;;;1.00;1.00;;;;;;;;4977432;28;45364;-79
2023/04/14 03:21:17;;;;;;;;;0.75;0.75;;;;;;;;4977389;28;45508;-79
2023/04/14 03:23:43;;;;;;;;;2.00;1.00;;;;;;;;4977586;28;45377;-80
2023/04/14 03:26:08;;;;;;;;;1.00;1.00;;;;;;;;4977551;28;45412;-77
2023/04/14 03:28:34;;;;;;;;;1.00;1.00;;;;;;;;4977003;28;45916;-76
2023/04/14 03:31:03;;;;;;;;;1.00;1.00;;;;;;;;4977029;28;45332;-76
2023/04/14 03:33:29;;;;;;;;;0.00;0.00;;;;;;;;4977360;28;45381;-76
2023/04/14 03:35:59;;;;;;;;;1.00;1.00;;;;;;;;4974818;28;45533;-76
2023/04/14 03:38:26;;;;;;;;;0.00;0.00;;;;;;;;4964867;28;45433;-78
2023/04/14 03:40:52;;;;;;;;;1.00;1.00;;;;;;;;4957734;28;45424;-77
2023/04/14 03:43:21;;;;;;;;;1.25;1.00;;;;;;;;4966791;28;45403;-77
2023/04/14 03:45:48;;;;;;;;;1.00;1.00;;;;;;;;4976688;28;45492;-77
2023/04/14 03:48:14;;;;;;;;;1.00;1.00;;;;;;;;4977191;28;45345;-78
2023/04/14 03:50:41;;;;;;;;;1.00;1.00;;;;;;;;4976867;28;45472;-77
2023/04/14 03:53:08;;;;;;;;;1.00;1.00;;;;;;;;4977199;28;46114;-77
2023/04/14 03:55:34;;;;;;;;;1.00;1.00;;;;;;;;4976990;28;45404;-77
2023/04/14 03:58:01;;;;;;;;;1.75;1.00;;;;;;;;4977111;28;46353;-77
2023/04/14 04:00:26;;;;;;;;;2.00;1.00;;;;;;;;4976527;28;45374;-76
2023/04/14 04:02:55;;;;;;;;;3.00;1.00;;;;;;;;4976938;28;45362;-76
2023/04/14 04:05:21;;;;;;;;;2.00;2.00;;;;;;;;4977156;28;45481;-77
2023/04/14 04:07:48;;;;;;;;;1.00;1.00;;;;;;;;4976824;28;46309;-76
2023/04/14 04:10:13;;;;;;;;;0.75;0.75;;;;;;;;4977164;28;45489;-76
2023/04/14 04:12:41;;;;;;;;;0.75;0.75;;;;;;;;4977583;28;45320;-76
2023/04/14 04:15:07;;;;;;;;;1.00;1.00;;;;;;;;4977201;28;45376;-77
2023/04/14 04:17:33;;;;;;;;;2.00;2.00;;;;;;;;4975919;28;45877;-77
2023/04/14 04:19:59;;;;;;;;;3.00;2.00;;;;;;;;4977982;28;45356;-77
2023/04/14 04:22:26;;;;;;;;;3.00;3.00;;;;;;;;4977649;28;45433;-76
2023/04/14 04:24:53;;;;;;;;;3.00;3.00;;;;;;;;4978672;28;45459;-76
2023/04/14 04:27:18;;;;;;;;;4.75;3.75;;;;;;;;4979309;28;45511;-77
2023/04/14 04:29:44;;;;;;;;;4.00;4.00;;;;;;;;4977487;28;45508;-78
2023/04/14 04:32:09;;;;;;;;;3.25;3.25;;;;;;;;4976850;28;45622;-78
2023/04/14 04:34:35;;;;;;;;;2.00;2.00;;;;;;;;4976732;28;45345;-77
2023/04/14 04:37:01;;;;;;;;;1.25;1.00;;;;;;;;4976132;28;45449;-77
2023/04/14 04:39:27;;;;;;;;;3.50;2.25;;;;;;;;4976799;28;45445;-77
2023/04/14 04:42:02;;;;;;;;;2.50;2.50;;;;;;;;4976562;28;45346;-78
2023/04/14 04:44:28;;;;;;;;;2.00;2.00;;;;;;;;4957728;28;45353;-78
2023/04/14 04:46:54;;;;;;;;;2.75;2.25;;;;;;;;4956440;28;46600;-77
2023/04/14 04:49:19;;;;;;;;;1.50;1.50;;;;;;;;4964774;28;45381;-78
2023/04/14 04:51:44;;;;;;;;;2.00;2.00;;;;;;;;4976405;28;45318;-77
2023/04/14 04:54:10;;;;;;;;;2.25;2.25;;;;;;;;4975877;28;45260;-77
2023/04/14 04:56:35;;;;;;;;;4.25;4.25;;;;;;;;4975021;28;46155;-77
2023/04/14 04:59:01;;;;;;;;;9.50;9.50;;;;;;;;4975219;28;45511;-77
2023/04/14 05:01:27;;;;;;;;;7.00;6.00;;;;;;;;4975593;28;45467;-77
2023/04/14 05:03:52;;;;;;;;;5.50;4.25;;;;;;;;4975591;28;45435;-77
2023/04/14 05:06:17;;;;;;;;;4.00;2.50;;;;;;;;4975989;28;45426;-77
2023/04/14 05:08:43;;;;;;;;;3.00;3.00;;;;;;;;4975935;28;45480;-77
2023/04/14 05:11:08;;;;;;;;;3.75;1.50;;;;;;;;4976110;28;45405;-78
2023/04/14 05:13:33;;;;;;;;;2.50;2.50;;;;;;;;4975986;28;45421;-78
2023/04/14 05:16:03;;;;;;;;;2.00;2.00;;;;;;;;4975681;28;46366;-78
2023/04/14 05:18:28;;;;;;;;;2.25;2.25;;;;;;;;4975889;28;45490;-78
2023/04/14 05:20:53;;;;;;;;;1.75;1.75;;;;;;;;4976119;28;45472;-77
2023/04/14 05:23:18;;;;;;;;;2.00;2.00;;;;;;;;4975809;28;45362;-78
2023/04/14 05:25:43;;;;;;;;;2.25;0.50;;;;;;;;4975456;28;45908;-76
2023/04/14 05:28:08;;;;;;;;;3.50;1.75;;;;;;;;4975614;28;45425;-77
2023/04/14 05:30:34;;;;;;;;;3.00;2.00;;;;;;;;4975509;28;45457;-76
2023/04/14 05:32:59;;;;;;;;;3.00;3.00;;;;;;;;4983725;28;45352;-76
2023/04/14 05:35:24;;;;;;;;;4.00;3.00;;;;;;;;4989624;28;46378;-78
2023/04/14 05:37:50;;;;;;;;;3.00;3.00;;;;;;;;4975963;28;45408;-77
2023/04/14 05:40:15;;;;;;;;;3.25;3.25;;;;;;;;4975892;28;45392;-74
2023/04/14 05:42:40;;;;;;;;;2.00;2.00;;;;;;;;4971296;28;45373;-73
2023/04/14 05:45:06;;;;;;;;;2.75;1.75;;;;;;;;4956137;28;45579;-75
2023/04/14 05:47:31;;;;;;;;;2.00;2.00;;;;;;;;4955559;28;45439;-75
2023/04/14 05:49:57;;;;;;;;;3.50;3.50;;;;;;;;4968725;28;45506;-75
2023/04/14 05:52:22;;;;;;;;;2.25;2.00;;;;;;;;4975146;28;45507;-74
2023/04/14 05:54:47;;;;;;;;;3.00;2.75;;;;;;;;4975300;28;46149;-75
2023/04/14 05:57:12;;;;;;;;;3.00;3.00;;;;;;;;4974671;28;45469;-81
2023/04/14 05:59:38;;;;;;;;;3.00;3.00;;;;;;;;4979351;28;45478;-77
2023/04/14 06:02:05;;;;;;;;;3.00;3.00;;;;;;;;4980158;28;45529;-77
2023/04/14 06:04:31;;;;;;;;;4.50;3.00;;;;;;;;4976439;28;45393;-77
2023/04/14 06:06:57;;;;;;;;;6.75;3.50;;;;;;;;4977059;28;45297;-76
2023/04/14 06:09:23;;;;;;;;;4.50;4.50;;;;;;;;4978792;28;45305;-77
2023/04/14 06:11:48;;;;;;;;;3.50;3.50;;;;;;;;4978622;28;45282;-77
2023/04/14 06:14:13;;;;;;;;;4.75;4.75;;;;;;;;4978476;28;45566;-77
2023/04/14 06:16:38;;;;;;;;;4.00;4.00;;;;;;;;4979069;28;45342;-78
2023/04/14 06:19:03;;;;;;;;;7.50;6.00;;;;;;;;4981287;28;45357;-79
2023/04/14 06:21:30;;;;;;;;;6.75;6.00;;;;;;;;4978205;28;45461;-77
2023/04/14 06:23:55;;;;;;;;;7.75;7.75;;;;;;;;4982782;28;45386;-77
2023/04/14 06:26:21;;;;;;;;;7.00;6.00;;;;;;;;4982225;28;45377;-78
2023/04/14 06:28:46;;;;;;;;;4.00;4.00;;;;;;;;4982425;28;45491;-77
2023/04/14 06:31:13;;;;;;;;;4.50;3.75;;;;;;;;4985045;28;45289;-78
2023/04/14 06:33:38;;;;;;;;;8.50;5.50;;;;;;;;4982167;28;45388;-78
2023/04/14 06:36:03;;;;;;;;;7.25;7.00;;;;;;;;4979788;28;45491;-77
2023/04/14 06:38:28;;;;;;;;;7.25;5.00;;;;;;;;4980528;28;45385;-78
2023/04/14 06:40:53;;;;;;;;;6.00;6.00;;;;;;;;4981945;28;45412;-78
2023/04/14 06:43:19;;;;;;;;;2.50;2.50;;;;;;;;4980141;28;46294;-78
2023/04/14 06:45:45;;;;;;;;;4.00;4.00;;;;;;;;4986590;28;45476;-77
2023/04/14 06:48:12;;;;;;;;;8.50;5.75;;;;;;;;4981018;28;45440;-78
2023/04/14 06:50:37;;;;;;;;;7.00;5.00;;;;;;;;4976587;28;45371;-77
2023/04/14 06:53:04;;;;;;;;;5.00;5.00;;;;;;;;4978199;28;46821;-77
2023/04/14 06:55:29;;;;;;;;;6.00;4.75;;;;;;;;4977448;28;45416;-78
2023/04/14 06:57:55;;;;;;;;;9.75;9.75;;;;;;;;4978792;28;45329;-78
2023/04/14 07:00:20;;;;;;;;;5.75;5.75;;;;;;;;4978796;28;45455;-77
2023/04/14 07:02:45;;;;;;;;;7.00;7.00;;;;;;;;4976134;28;46295;-77
2023/04/14 07:05:11;;;;;;;;;6.50;6.50;;;;;;;;4982349;28;45700;-77
2023/04/14 07:07:36;;;;;;;;;6.75;6.75;;;;;;;;4980441;28;45409;-77
2023/04/14 07:10:02;;;;;;;;;6.75;6.75;;;;;;;;4978705;28;45578;-76
2023/04/14 07:12:27;;;;;;;;;8.75;7.50;;;;;;;;4981869;28;46095;-77
2023/04/14 07:14:52;;;;;;;;;10.25;9.25;;;;;;;;4979761;28;45377;-77
2023/04/14 07:17:18;;;;;;;;;5.25;3.50;;;;;;;;4980827;28;45401;-78
2023/04/14 07:19:43;;;;;;;;;11.00;10.50;;;;;;;;4978322;28;45418;-76
2023/04/14 07:22:08;;;;;;;;;11.25;10.00;;;;;;;;4978049;28;45570;-77
2023/04/14 07:24:34;;;;;;;;;14.50;10.00;;;;;;;;4978473;28;45328;-77
2023/04/14 07:26:59;;;;;;;;;10.00;10.00;;;;;;;;4979816;28;45443;-78
2023/04/14 07:29:26;;;;;;;;;11.50;10.00;;;;;;;;4978880;28;45561;-77
2023/04/14 07:31:51;;;;;;;;;13.00;10.00;;;;;;;;4979960;28;46183;-77
2023/04/14 07:34:17;;;;;;;;;8.00;7.25;;;;;;;;4981024;28;45282;-77
2023/04/14 07:36:42;;;;;;;;;7.50;7.00;;;;;;;;4982979;28;45271;-77
2023/04/14 07:39:07;;;;;;;;;10.75;9.75;;;;;;;;4981611;28;45309;-78
2023/04/14 07:41:32;;;;;;;;;11.25;10.00;;;;;;;;4977882;28;45362;-77
2023/04/14 07:43:58;;;;;;;;;9.50;9.50;;;;;;;;4978714;28;45582;-77
2023/04/14 07:46:24;;;;;;;;;10.00;8.75;;;;;;;;4978602;28;45215;-78
2023/04/14 07:48:49;;;;;;;;;6.75;6.75;;;;;;;;4977204;28;45349;-77
2023/04/14 07:51:14;;;;;;;;;11.00;7.50;;;;;;;;4967682;28;47166;-78
2023/04/14 07:53:42;;;;;;;;;8.25;8.25;;;;;;;;4976216;28;45385;-78
2023/04/14 07:56:07;;;;;;;;;8.75;8.75;;;;;;;;4977183;28;45569;-78
2023/04/14 07:58:32;;;;;;;;;11.25;11.00;;;;;;;;4979409;28;45466;-78
2023/04/14 08:00:58;;;;;;;;;13.25;10.25;;;;;;;;4979929;28;45504;-78
2023/04/14 08:03:23;;;;;;;;;10.25;10.00;;;;;;;;4977222;28;45435;-78
2023/04/14 08:05:48;;;;;;;;;6.00;6.00;;;;;;;;4977151;28;45419;-78
2023/04/14 08:08:14;;;;;;;;;7.00;6.50;;;;;;;;4977668;28;45465;-78
2023/04/14 08:10:40;;;;;;;;;5.75;5.75;;;;;;;;4978514;28;45855;-77
2023/04/14 08:13:05;;;;;;;;;10.75;8.25;;;;;;;;4978158;28;45452;-77
2023/04/14 08:15:31;;;;;;;;;8.00;8.00;;;;;;;;4978006;28;45360;-77
2023/04/14 08:17:56;;;;;;;;;7.00;7.00;;;;;;;;4977900;28;45383;-77
2023/04/14 08:20:21;;;;;;;;;12.00;10.00;;;;;;;;4976875;28;45337;-76
2023/04/14 08:22:47;;;;;;;;;8.00;6.75;;;;;;;;4976705;28;45436;-77
2023/04/14 08:25:13;;;;;;;;;10.00;9.25;;;;;;;;4976607;28;45531;-77
2023/04/14 08:27:38;;;;;;;;;11.25;10.25;;;;;;;;4976830;28;45413;-78
2023/04/14 08:30:04;;;;;;;;;8.75;8.75;;;;;;;;4975558;28;45456;-77
2023/04/14 08:32:29;;;;;;;;;8.00;6.50;;;;;;;;4973635;28;45638;-76
2023/04/14 08:34:55;;;;;;;;;4.75;4.00;;;;;;;;4976547;28;45312;-77
2023/04/14 08:37:21;;;;;;;;;3.00;3.00;;;;;;;;4956014;28;45451;-77
2023/04/14 08:39:47;;;;;;;;;4.00;4.00;;;;;;;;4957144;28;45423;-76
2023/04/14 08:42:14;;;;;;;;;5.75;4.75;;;;;;;;4956763;28;45417;-77
2023/04/14 08:44:39;;;;;;;;;4.00;4.00;;;;;;;;4976835;28;45436;-77
2023/04/14 08:47:05;;;;;;;;;5.50;5.50;;;;;;;;4976246;28;45394;-78
2023/04/14 08:49:38;;;;;;;;;6.50;5.00;;;;;;;;4976944;28;46410;-78
2023/04/14 08:52:05;;;;;;;;;4.75;4.00;;;;;;;;4976619;28;45408;-79
2023/04/14 08:54:31;;;;;;;;;4.00;4.00;;;;;;;;4976531;28;45435;-77
2023/04/14 08:56:58;;;;;;;;;4.00;4.00;;;;;;;;4964500;28;45465;-78
2023/04/14 08:59:23;;;;;;;;;2.00;2.00;;;;;;;;4955546;28;48239;-76
2023/04/14 09:01:51;;;;;;;;;3.25;3.25;;;;;;;;4956415;28;45370;-77
2023/04/14 09:04:18;;;;;;;;;3.75;2.75;;;;;;;;4956734;28;45421;-80
2023/04/14 09:06:44;;;;;;;;;3.00;3.00;;;;;;;;4957316;28;45440;-79
2023/04/14 09:09:09;;;;;;;;;6.50;4.50;;;;;;;;4962644;28;46254;-77
2023/04/14 09:11:35;;;;;;;;;3.25;3.25;;;;;;;;4965591;28;45435;-77
2023/04/14 09:14:00;;;;;;;;;2.75;2.75;;;;;;;;4956598;28;45406;-77
2023/04/14 09:16:26;;;;;;;;;2.00;2.00;;;;;;;;4956212;28;45338;-76
2023/04/14 09:18:55;;;;;;;;;3.25;3.25;;;;;;;;4956364;28;45662;-77
2023/04/14 09:21:20;;;;;;;;;3.00;3.00;;;;;;;;4956476;28;45353;-77
2023/04/14 09:23:46;;;;;;;;;4.25;3.00;;;;;;;;4955298;28;45338;-78
2023/04/14 09:26:12;;;;;;;;;2.75;2.75;;;;;;;;4970562;28;45444;-76
2023/04/14 09:28:38;;;;;;;;;4.50;4.50;;;;;;;;4976880;28;45615;-76
2023/04/14 09:31:03;;;;;;;;;3.00;3.00;;;;;;;;4977042;28;45467;-77
2023/04/14 09:33:28;;;;;;;;;3.50;3.50;;;;;;;;4976858;28;45520;-75
2023/04/14 09:35:54;;;;;;;;;4.00;3.00;;;;;;;;4976030;28;45448;-76
2023/04/14 09:38:31;;;;;;;;;4.75;4.75;;;;;;;;4974982;28;46465;-77
2023/04/14 09:40:56;;;;;;;;;6.00;5.00;;;;;;;;4977035;28;45367;-76
2023/04/14 09:43:25;;;;;;;;;1.50;1.50;;;;;;;;4966613;28;45495;-77
2023/04/14 09:45:51;;;;;;;;;5.75;4.75;;;;;;;;4958095;28;45350;-77
2023/04/14 09:48:16;;;;;;;;;4.75;4.00;;;;;;;;4958339;28;46479;-77
2023/04/14 09:51:00;;;;;;;;;5.25;3.75;;;;;;;;4977172;28;45464;-77
2023/04/14 09:53:30;;;;;;;;;5.00;5.00;;;;;;;;4976624;28;45355;-77
2023/04/14 09:55:56;;;;;;;;;2.00;2.00;;;;;;;;4976881;28;45419;-77
2023/04/14 09:58:21;;;;;;;;;2.75;2.75;;;;;;;;4976214;28;48240;-77
2023/04/14 10:00:48;;;;;;;;;3.00;3.00;;;;;;;;4976415;28;45472;-76
2023/04/14 10:03:13;;;;;;;;;3.75;3.75;;;;;;;;4977281;28;45364;-77
2023/04/14 10:05:38;;;;;;;;;3.25;3.00;;;;;;;;4975734;28;45309;-76
2023/04/14 10:08:04;;;;;;;;;3.00;2.00;;;;;;;;4977668;28;45579;-77
2023/04/14 10:10:30;;;;;;;;;2.00;2.00;;;;;;;;4976598;28;45314;-75
2023/04/14 10:12:55;;;;;;;;;3.00;3.00;;;;;;;;4975556;28;45323;-77
2023/04/14 10:15:20;;;;;;;;;3.75;2.50;;;;;;;;4977585;28;45318;-77
2023/04/14 10:17:46;;;;;;;;;5.75;3.00;;;;;;;;4980750;28;45414;-77
2023/04/14 10:20:11;;;;;;;;;3.00;3.00;;;;;;;;4976498;28;45418;-76
2023/04/14 10:22:37;;;;;;;;;4.00;3.00;;;;;;;;4976719;28;45442;-78
2023/04/14 10:25:03;;;;;;;;;2.25;2.25;;;;;;;;4976738;28;45496;-77
2023/04/14 10:27:30;;;;;;;;;3.75;2.50;;;;;;;;4974546;28;45701;-78
2023/04/14 10:29:56;;;;;;;;;2.75;2.75;;;;;;;;4976937;28;45393;-75
2023/04/14 10:32:22;;;;;;;;;4.00;1.00;;;;;;;;4976484;28;45482;-77
2023/04/14 10:34:59;;;;;;;;;2.00;2.00;;;;;;;;4973007;28;46939;-73
2023/04/14 10:37:24;;;;;;;;;3.00;3.00;;;;;;;;4974360;28;45789;-72
2023/04/14 10:39:54;;;;;;;;;2.00;1.50;;;;;;;;4974332;28;45361;-74
2023/04/14 10:42:19;;;;;;;;;2.50;2.50;;;;;;;;4972965;28;45551;-72
2023/04/14 10:45:00;;;;;;;;;2.00;2.00;;;;;;;;4975422;28;45543;-77
2023/04/14 10:47:25;;;;;;;;;2.00;0.75;;;;;;;;4969930;28;45455;-77
2023/04/14 10:49:50;;;;;;;;;2.75;2.75;;;;;;;;4974921;28;45946;-77
2023/04/14 10:52:15;;;;;;;;;2.75;2.00;;;;;;;;4986362;28;45290;-78
2023/04/14 10:54:47;;;;;;;;;1.25;1.25;;;;;;;;4978605;28;45281;-78
2023/04/14 10:57:17;;;;;;;;;1.00;1.00;;;;;;;;4982779;28;46088;-77
2023/04/14 10:59:44;;;;;;;;;2.00;2.00;;;;;;;;4978548;28;45506;-78
2023/04/14 11:02:22;;;;;;;;;2.50;1.00;;;;;;;;4980082;28;44780;-78
2023/04/14 11:05:10;;;;;;;;;1.50;1.50;;;;;;;;4986443;28;45384;-76
2023/04/14 11:07:53;;;;;;;;;2.00;2.00;;;;;;;;4996762;28;45511;-79
2023/04/14 11:11:01;;;;;;;;;3.50;2.50;;;;;;;;4998111;28;45259;-77
2023/04/14 11:13:10;;;;;;;;;1.50;1.50;;;;;;;;4985465;28;45488;-78
2023/04/14 11:15:45;;;;;;;;;2.00;2.00;;;;;;;;4989440;28;45412;-80
2023/04/14 11:18:23;;;;;;;;;4.00;3.00;;;;;;;;4983368;28;46176;-78
2023/04/14 11:21:09;;;;;;;;;5.00;2.75;;;;;;;;4991829;28;45413;-79
2023/04/14 11:23:35;;;;;;;;;4.75;3.25;;;;;;;;4990825;28;45330;-79
2023/04/14 11:26:00;;;;;;;;;2.00;2.00;;;;;;;;4984623;28;45440;-79
2023/04/14 11:28:30;;;;;;;;;3.00;3.00;;;;;;;;4996520;28;45930;-79
2023/04/14 11:30:56;;;;;;;;;3.25;1.25;;;;;;;;4987513;28;45432;-79
2023/04/14 11:33:21;;;;;;;;;6.00;3.00;;;;;;;;4989779;28;45435;-79
2023/04/14 11:35:50;;;;;;;;;6.75;3.75;;;;;;;;4987408;28;45309;-78
2023/04/14 11:38:15;;;;;;;;;2.50;1.00;;;;;;;;4996539;28;45480;-77
2023/04/14 11:40:40;;;;;;;;;1.50;0.50;;;;;;;;4984718;28;45439;-77
2023/04/14 11:43:06;;;;;;;;;2.25;2.25;;;;;;;;4991766;28;45409;-78
2023/04/14 11:45:31;;;;;;;;;2.50;1.75;;;;;;;;4979878;28;45449;-77
2023/04/14 11:47:58;;;;;;;;;1.00;1.00;;;;;;;;4995646;28;47187;-77
2023/04/14 11:50:23;;;;;;;;;3.00;1.25;;;;;;;;4983276;28;45472;-77
2023/04/14 11:52:48;;;;;;;;;2.00;1.00;;;;;;;;4994171;28;45435;-78
2023/04/14 11:55:14;;;;;;;;;2.00;2.00;;;;;;;;4989411;28;45563;-76
2023/04/14 11:57:48;;;;;;;;;1.50;1.50;;;;;;;;4986068;28;46090;-77
2023/04/14 12:00:14;;;;;;;;;2.75;2.00;;;;;;;;4995111;28;45415;-76
2023/04/14 12:02:43;;;;;;;;;1.50;1.25;;;;;;;;4981830;28;45381;-77
2023/04/14 12:05:08;;;;;;;;;2.00;1.00;;;;;;;;4987155;28;45518;-78
2023/04/14 12:07:34;;;;;;;;;2.25;1.00;;;;;;;;4987491;28;47923;-76
2023/04/14 12:09:59;;;;;;;;;3.00;1.00;;;;;;;;4980854;28;45336;-76
2023/04/14 12:12:26;;;;;;;;;0.50;0.00;;;;;;;;4979994;28;45384;-77
2023/04/14 12:14:51;;;;;;;;;1.50;1.00;;;;;;;;4992343;28;45290;-79
2023/04/14 12:17:19;;;;;;;;;3.00;1.50;;;;;;;;4988795;28;45407;-74
2023/04/14 12:19:44;;;;;;;;;3.00;1.25;;;;;;;;4982997;28;45584;-78
2023/04/14 12:22:10;;;;;;;;;1.25;1.25;;;;;;;;4967164;28;45469;-78
2023/04/14 12:24:36;;;;;;;;;1.25;1.25;;;;;;;;4977065;28;45546;-78
2023/04/14 12:27:05;;;;;;;;;1.00;1.00;;;;;;;;4987176;28;46243;-79
2023/04/14 12:29:33;;;;;;;;;5.75;1.00;;;;;;;;4988464;28;45436;-79
2023/04/14 12:31:59;;;;;;;;;1.50;1.00;;;;;;;;4995416;28;45386;-80
2023/04/14 12:34:25;;;;;;;;;0.00;0.00;;;;;;;;4982021;28;45425;-79
2023/04/14 12:36:53;;;;;;;;;1.00;1.00;;;;;;;;4989627;28;46383;-79
2023/04/14 12:39:21;;;;;;;;;0.00;0.00;;;;;;;;4986954;28;45537;-79
2023/04/14 12:41:47;;;;;;;;;0.25;0.00;;;;;;;;4991216;28;45495;-79
2023/04/14 12:44:16;;;;;;;;;0.50;0.50;;;;;;;;4983479;28;45448;-79
2023/04/14 12:46:48;;;;;;;;;1.25;1.25;;;;;;;;4993776;28;45533;-78
2023/04/14 12:49:32;;;;;;;;;1.25;0.50;;;;;;;;4980364;28;45467;-80
2023/04/14 12:51:58;;;;;;;;;5.00;1.00;;;;;;;;4994226;28;45459;-79
2023/04/14 12:54:23;;;;;;;;;1.00;1.00;;;;;;;;4982520;28;45578;-79
2023/04/14 12:56:48;;;;;;;;;0.00;0.00;;;;;;;;4992764;28;46106;-80
2023/04/14 12:59:14;;;;;;;;;1.50;1.50;;;;;;;;4986930;28;45503;-78
2023/04/14 13:01:39;;;;;;;;;2.00;0.00;;;;;;;;4986779;28;45488;-77
2023/04/14 13:04:05;;;;;;;;;2.50;1.50;;;;;;;;4979941;28;45463;-78
2023/04/14 13:06:30;;;;;;;;;3.00;2.00;;;;;;;;4979915;28;45585;-79
2023/04/14 13:08:56;;;;;;;;;0.00;0.00;;;;;;;;4994177;28;45429;-80
2023/04/14 13:11:24;;;;;;;;;1.00;1.00;;;;;;;;4984176;28;45539;-77
2023/04/14 13:13:51;;;;;;;;;2.00;1.00;;;;;;;;4992181;28;45412;-77
2023/04/14 13:16:16;;;;;;;;;0.00;0.00;;;;;;;;4985955;28;45759;-77
2023/04/14 13:18:45;;;;;;;;;0.75;0.75;;;;;;;;4985581;28;45521;-76
2023/04/14 13:21:10;;;;;;;;;0.50;0.50;;;;;;;;4987897;28;45479;-78
2023/04/14 13:23:36;;;;;;;;;1.50;0.00;;;;;;;;4988741;28;45395;-77
2023/04/14 13:26:04;;;;;;;;;1.25;0.00;;;;;;;;4979807;28;46189;-77
2023/04/14 13:28:30;;;;;;;;;1.25;1.00;;;;;;;;4991174;28;45432;-80
2023/04/14 13:30:56;;;;;;;;;2.00;1.75;;;;;;;;4986019;28;45328;-78
2023/04/14 13:33:22;;;;;;;;;1.00;1.00;;;;;;;;4984517;28;45613;-76
2023/04/14 13:35:47;;;;;;;;;1.75;1.75;;;;;;;;4981251;28;47148;-79
2023/04/14 13:38:12;;;;;;;;;2.00;2.00;;;;;;;;4976503;28;45413;-78
2023/04/14 13:40:37;;;;;;;;;1.75;1.75;;;;;;;;4989258;28;45475;-79
2023/04/14 13:43:03;;;;;;;;;1.00;1.00;;;;;;;;4975535;28;45502;-79
2023/04/14 13:45:28;;;;;;;;;1.50;1.00;;;;;;;;4985980;28;45419;-78
2023/04/14 13:47:54;;;;;;;;;2.00;2.00;;;;;;;;4979688;28;45443;-79
2023/04/14 13:50:20;;;;;;;;;0.75;0.75;;;;;;;;4990007;28;45440;-78
2023/04/14 13:52:45;;;;;;;;;1.50;1.50;;;;;;;;4981123;28;45455;-77
2023/04/14 13:55:10;;;;;;;;;1.00;1.00;;;;;;;;4984246;28;47484;-80
2023/04/14 13:57:35;;;;;;;;;1.25;1.25;;;;;;;;4975473;28;45735;-78
2023/04/14 14:00:02;;;;;;;;;2.00;1.00;;;;;;;;4990448;28;45548;-79
2023/04/14 14:02:27;;;;;;;;;1.75;1.75;;;;;;;;4977977;28;45393;-78
2023/04/14 14:04:53;;;;;;;;;2.25;2.25;;;;;;;;4987569;28;45413;-78
2023/04/14 14:07:18;;;;;;;;;1.25;1.25;;;;;;;;4984587;28;45341;-78
2023/04/14 14:09:44;;;;;;;;;1.00;1.00;;;;;;;;4981445;28;45364;-78
2023/04/14 14:12:10;;;;;;;;;1.75;0.00;;;;;;;;4988376;28;45515;-77
2023/04/14 14:14:36;;;;;;;;;0.00;0.00;;;;;;;;4990042;28;46456;-78
2023/04/14 14:17:01;;;;;;;;;3.00;1.50;;;;;;;;4982712;28;45320;-79
2023/04/14 14:19:26;;;;;;;;;0.00;0.00;;;;;;;;4983127;28;45542;-78
2023/04/14 14:21:51;;;;;;;;;0.00;0.00;;;;;;;;4975837;28;45381;-78
2023/04/14 14:24:16;;;;;;;;;0.75;0.75;;;;;;;;4973868;28;47060;-77
2023/04/14 14:26:42;;;;;;;;;2.00;1.00;;;;;;;;4979220;28;46096;-77
2023/04/14 14:29:07;;;;;;;;;1.00;1.00;;;;;;;;4987605;28;45478;-80
2023/04/14 14:31:33;;;;;;;;;1.50;0.75;;;;;;;;4983292;28;45455;-78
2023/04/14 14:33:58;;;;;;;;;0.75;0.75;;;;;;;;4983145;28;45515;-79
2023/04/14 14:36:23;;;;;;;;;0.25;0.25;;;;;;;;4994350;28;45468;-78
2023/04/14 14:38:48;;;;;;;;;0.25;0.25;;;;;;;;4995122;28;45471;-79